Kenilworth, Illinois
Current Conditions -  °F | °C
As of 7:52 AM on Monday 26 Jan 2015 (Local Time) from KPWK Reporting Station
Few Clouds Few Clouds  
Wind Chill:   Ceiling: Unl
Heat Index: 16°   Visibility: 10mi
Dew Point: 12°   Wind: 5mph
Humidity: 84%   Direction: 300°WNW
Pressure: 29.98"   Gusts: NA
Location:  42.09°N, 87.72°W
Report Text: KPWK 261352Z 30004KT 10SM FEW110 M09/M11 A2998 RMK AO2 SLP163 T10891111
Loading
Personal Weather Stations






























Interactive Weather Map New forecast layout! Learn more

10-Day Weather Forecast

Advertisements
Track Severe Weather on mobile